Friday Harbor, Washington
Current Conditions -  °F | °C
As of 5:04 AM on Sunday 23 Nov 2014 (Local Time) from KFHR Reporting Station
Moderate Rain Moderate Rain  
Wind Chill: 43°   Ceiling: 3700
Heat Index: 47°   Visibility: 4mi
Dew Point: 45°   Wind: 9mph
Humidity: 93%   Direction: 170°S
Pressure: 30.02"   Gusts: 23mph
Location:  48.53°N, 123.02°W
Report Text: KFHR 231304Z AUTO 17008G20KT 4SM RA BR SCT008 OVC037 08/07 A3002 RMK AO2 P0004 T00830072
Loading
Personal Weather Stations






























Interactive Weather Map New forecast layout! Learn more

10-Day Weather Forecast

Advertisements
Track Severe Weather on mobile